createdAt,value
2018-03-03T00:00:45.337Z,98.60
2018-03-03T00:01:45.361Z,100.40
2018-03-03T00:02:45.388Z,103.40
2018-03-03T00:03:45.412Z,101.60
2018-03-03T00:04:45.435Z,103.60
2018-03-03T00:05:45.461Z,105.00
2018-03-03T00:06:45.491Z,101.60
2018-03-03T00:07:45.511Z,101.90
2018-03-03T00:08:45.538Z,102.10
2018-03-03T00:09:45.560Z,100.10
2018-03-03T00:10:45.584Z,99.30
2018-03-03T00:11:45.609Z,103.90
2018-03-03T00:12:45.633Z,105.10
2018-03-03T00:13:45.659Z,106.30
2018-03-03T00:14:45.683Z,109.00
2018-03-03T00:15:45.707Z,117.50
2018-03-03T00:16:45.732Z,118.70
2018-03-03T00:17:45.756Z,125.60
2018-03-03T00:18:45.781Z,125.30
2018-03-03T00:19:45.806Z,121.50
2018-03-03T00:20:45.831Z,119.90
2018-03-03T00:21:45.858Z,122.40
2018-03-03T00:22:45.880Z,123.10
2018-03-03T00:23:45.904Z,119.60
2018-03-03T00:24:45.928Z,112.60
2018-03-03T00:25:45.956Z,116.40
2018-03-03T00:26:45.978Z,112.10
2018-03-03T00:27:46.003Z,107.30
2018-03-03T00:28:46.027Z,106.30
2018-03-03T00:29:46.051Z,103.50
2018-03-03T00:30:46.079Z,105.30
2018-03-03T00:31:46.102Z,106.20
2018-03-03T00:32:46.125Z,107.30
2018-03-03T00:33:46.150Z,105.50
2018-03-03T00:34:46.177Z,101.60
2018-03-03T00:35:46.198Z,103.90
2018-03-03T00:36:46.222Z,106.00
2018-03-03T00:37:46.247Z,104.90
2018-03-03T00:38:46.271Z,109.30
2018-03-03T00:39:46.295Z,113.60
2018-03-03T00:40:46.320Z,110.30
2018-03-03T00:41:46.345Z,112.00
2018-03-03T00:42:46.369Z,113.70
2018-03-03T00:43:46.393Z,112.30
2018-03-03T00:44:46.416Z,109.90
2018-03-03T00:45:46.442Z,108.30
2018-03-03T00:46:46.467Z,103.70
2018-03-03T00:47:46.491Z,105.20
2018-03-03T00:48:46.514Z,106.20
2018-03-03T00:49:46.538Z,104.40
2018-03-03T00:50:46.563Z,99.70
2018-03-03T00:51:46.587Z,97.10
2018-03-03T00:52:46.611Z,92.00
2018-03-03T00:53:46.636Z,88.60
2018-03-03T00:54:46.659Z,89.80
2018-03-03T00:55:46.685Z,94.00
2018-03-03T00:56:46.708Z,90.00
2018-03-03T00:57:46.733Z,91.20
2018-03-03T00:58:46.757Z,94.60
2018-03-03T00:59:46.783Z,95.80
2018-03-03T01:00:46.806Z,100.00
2018-03-03T01:01:46.831Z,99.50
2018-03-03T01:02:46.856Z,97.10
2018-03-03T01:03:46.881Z,98.10
2018-03-03T01:04:46.905Z,97.90
2018-03-03T01:05:46.929Z,95.80
2018-03-03T01:06:46.953Z,94.90
2018-03-03T01:07:46.979Z,92.00
2018-03-03T01:08:47.002Z,94.20
2018-03-03T01:09:47.026Z,93.40
2018-03-03T01:10:47.051Z,90.90
2018-03-03T01:11:47.076Z,91.90
2018-03-03T01:12:47.101Z,90.50
2018-03-03T01:13:47.126Z,88.80
2018-03-03T01:14:47.151Z,83.80
2018-03-03T01:15:47.174Z,80.90
2018-03-03T01:16:47.198Z,84.10
2018-03-03T01:17:47.222Z,83.90
2018-03-03T01:18:47.248Z,85.80
2018-03-03T01:19:47.275Z,84.90
2018-03-03T01:20:47.313Z,83.80
2018-03-03T01:21:47.321Z,83.20
2018-03-03T01:22:47.346Z,85.70
2018-03-03T01:23:47.373Z,84.70
2018-03-03T01:24:47.393Z,82.70
2018-03-03T01:25:47.426Z,85.30
2018-03-03T01:26:47.444Z,88.90
2018-03-03T01:27:47.468Z,86.80
2018-03-03T01:28:47.492Z,83.40
2018-03-03T01:29:47.518Z,90.00
2018-03-03T01:30:47.543Z,87.70
2018-03-03T01:31:47.567Z,88.60
2018-03-03T01:32:47.589Z,88.80
2018-03-03T01:33:47.616Z,87.20
2018-03-03T01:34:47.640Z,93.90
2018-03-03T01:35:47.665Z,88.60
2018-03-03T01:36:47.692Z,86.40
2018-03-03T01:37:47.713Z,85.90
2018-03-03T01:38:47.739Z,84.20
2018-03-03T01:39:47.762Z,87.10
2018-03-03T01:40:47.794Z,89.90
2018-03-03T01:41:47.811Z,91.20
2018-03-03T01:42:47.836Z,88.90
2018-03-03T01:43:47.860Z,95.50
2018-03-03T01:44:47.883Z,95.20
2018-03-03T01:45:47.911Z,90.30
2018-03-03T01:46:47.979Z,93.50
2018-03-03T01:47:47.959Z,92.20
2018-03-03T01:48:47.984Z,96.30
2018-03-03T01:49:48.008Z,96.00
2018-03-03T01:50:48.045Z,101.80
2018-03-03T01:51:48.058Z,101.20
2018-03-03T01:52:48.081Z,97.00
2018-03-03T01:53:48.106Z,112.50
2018-03-03T01:54:48.131Z,88.80
2018-03-03T01:55:48.156Z,83.00
2018-03-03T01:56:48.181Z,89.70
2018-03-03T01:57:48.203Z,95.40
2018-03-03T01:58:48.230Z,89.60
2018-03-03T01:59:48.255Z,89.20
2018-03-03T02:00:48.279Z,96.00
2018-03-03T02:01:48.304Z,96.10
2018-03-03T02:02:48.329Z,105.80
2018-03-03T02:03:48.353Z,104.30
2018-03-03T02:04:48.378Z,95.00
2018-03-03T02:05:48.403Z,102.50
2018-03-03T02:06:48.426Z,94.60
2018-03-03T02:07:48.457Z,95.30
2018-03-03T02:08:48.475Z,91.60
2018-03-03T02:09:48.501Z,94.10
2018-03-03T02:10:48.526Z,89.80
2018-03-03T02:11:48.551Z,85.70
2018-03-03T02:12:48.576Z,81.70
2018-03-03T02:13:48.599Z,79.70
2018-03-03T02:14:48.629Z,73.90
2018-03-03T02:15:48.651Z,75.90
2018-03-03T02:16:48.675Z,74.80
2018-03-03T02:17:48.701Z,74.80
2018-03-03T02:18:48.725Z,76.00
2018-03-03T02:19:48.750Z,78.00
2018-03-03T02:20:48.774Z,78.40
2018-03-03T02:21:48.799Z,88.90
2018-03-03T02:22:48.823Z,99.90
2018-03-03T02:23:48.849Z,97.60
2018-03-03T02:24:48.873Z,102.30
2018-03-03T02:25:48.898Z,107.60
2018-03-03T02:26:48.924Z,113.00
2018-03-03T02:27:48.949Z,118.20
2018-03-03T02:28:48.973Z,113.20
2018-03-03T02:29:48.998Z,117.50
2018-03-03T02:30:49.023Z,118.20
2018-03-03T02:31:49.048Z,113.60
2018-03-03T02:32:49.071Z,111.50
2018-03-03T02:33:49.099Z,109.40
2018-03-03T02:34:49.121Z,110.20
2018-03-03T02:35:49.147Z,112.30
2018-03-03T02:36:49.172Z,115.50
2018-03-03T02:37:49.195Z,108.00
2018-03-03T02:38:49.219Z,117.50
2018-03-03T02:39:49.245Z,117.80
2018-03-03T02:40:49.269Z,125.90
2018-03-03T02:41:49.294Z,126.80
2018-03-03T02:42:49.320Z,127.00
2018-03-03T02:43:49.343Z,139.30
2018-03-03T02:44:49.366Z,138.90
2018-03-03T02:45:49.393Z,144.10
2018-03-03T02:46:49.417Z,140.20
2018-03-03T02:47:49.447Z,152.30
2018-03-03T02:48:49.464Z,141.20
2018-03-03T02:49:49.489Z,140.50
2018-03-03T02:50:49.514Z,162.30
2018-03-03T02:51:49.539Z,147.70
2018-03-03T02:52:49.562Z,160.70
2018-03-03T02:53:49.587Z,163.50
2018-03-03T02:54:49.611Z,167.90
2018-03-03T02:55:49.647Z,173.10
2018-03-03T02:56:49.659Z,179.00
2018-03-03T02:57:49.687Z,177.20
2018-03-03T02:58:49.707Z,155.10
2018-03-03T02:59:49.733Z,161.90
2018-03-03T03:00:49.756Z,162.70
2018-03-03T03:01:49.780Z,174.20
2018-03-03T03:02:49.804Z,164.30
2018-03-03T03:03:49.827Z,160.80
2018-03-03T03:04:49.853Z,166.80
2018-03-03T03:05:49.876Z,193.60
2018-03-03T03:06:49.900Z,140.20
2018-03-03T03:07:49.926Z,168.40
2018-03-03T03:08:49.947Z,171.50
2018-03-03T03:09:49.972Z,188.60
2018-03-03T03:10:49.997Z,159.20
2018-03-03T03:11:50.021Z,144.40
2018-03-03T03:12:50.045Z,160.00
2018-03-03T03:13:50.068Z,151.40
2018-03-03T03:14:50.094Z,150.70
2018-03-03T03:15:50.118Z,152.60
2018-03-03T03:16:50.142Z,159.00
2018-03-03T03:17:50.166Z,137.10
2018-03-03T03:18:50.190Z,133.00
2018-03-03T03:19:50.215Z,138.20
2018-03-03T03:20:50.237Z,147.40
2018-03-03T03:21:50.262Z,141.00
2018-03-03T03:22:50.288Z,142.30
2018-03-03T03:23:50.314Z,130.20
2018-03-03T03:24:50.336Z,126.70
2018-03-03T03:25:50.360Z,136.10
2018-03-03T03:26:50.383Z,148.70
2018-03-03T03:27:50.409Z,154.10
2018-03-03T03:28:50.433Z,151.10
2018-03-03T03:29:50.456Z,162.00
2018-03-03T03:30:50.495Z,159.70
2018-03-03T03:31:50.504Z,184.30
2018-03-03T03:32:50.528Z,171.70
2018-03-03T03:33:50.553Z,182.20
2018-03-03T03:34:50.578Z,146.00
2018-03-03T03:35:50.602Z,170.80
2018-03-03T03:36:50.624Z,216.80
2018-03-03T03:37:50.650Z,174.40
2018-03-03T03:38:50.688Z,160.90
2018-03-03T03:39:50.698Z,149.20
2018-03-03T03:40:50.723Z,191.70
2018-03-03T03:41:50.746Z,177.80
2018-03-03T03:42:50.770Z,153.70
2018-03-03T03:43:50.793Z,192.20
2018-03-03T03:44:50.817Z,151.20
2018-03-03T03:45:50.842Z,182.70
2018-03-03T03:46:50.866Z,185.60
2018-03-03T03:47:50.891Z,181.60
2018-03-03T03:48:50.914Z,172.20
2018-03-03T03:49:50.938Z,191.00
2018-03-03T03:50:50.962Z,205.40
2018-03-03T03:51:50.988Z,177.70
2018-03-03T03:52:51.011Z,181.80
2018-03-03T03:53:56.692Z,186.80
2018-03-03T03:54:51.059Z,168.70
2018-03-03T03:55:51.083Z,157.20
2018-03-03T03:56:51.108Z,152.00
2018-03-03T03:57:51.132Z,140.00
2018-03-03T03:58:51.157Z,136.20
2018-03-03T03:59:51.181Z,118.60
2018-03-03T04:00:51.206Z,111.50
2018-03-03T04:01:51.229Z,110.30
2018-03-03T04:02:51.253Z,104.30
2018-03-03T04:03:51.278Z,111.40
2018-03-03T04:04:51.301Z,99.80
2018-03-03T04:05:51.327Z,109.30
2018-03-03T04:06:51.351Z,118.60
2018-03-03T04:07:51.376Z,110.40
2018-03-03T04:08:51.398Z,107.20
2018-03-03T04:09:51.423Z,120.40
2018-03-03T04:10:51.447Z,123.00
2018-03-03T04:11:51.472Z,119.60
2018-03-03T04:12:51.497Z,108.70
2018-03-03T04:13:51.519Z,109.80
2018-03-03T04:14:51.544Z,104.00
2018-03-03T04:15:51.569Z,104.10
2018-03-03T04:16:51.592Z,100.30
2018-03-03T04:17:51.620Z,101.20
2018-03-03T04:18:51.643Z,101.10
2018-03-03T04:19:51.670Z,98.30
2018-03-03T04:20:51.690Z,97.90
2018-03-03T04:21:51.713Z,94.70
2018-03-03T04:22:51.739Z,107.50
2018-03-03T04:23:51.764Z,92.40
2018-03-03T04:24:51.788Z,86.50
2018-03-03T04:25:51.813Z,84.10
2018-03-03T04:26:51.836Z,89.40
2018-03-03T04:27:51.861Z,95.20
2018-03-03T04:28:51.884Z,107.10
2018-03-03T04:29:51.909Z,94.70
2018-03-03T04:30:51.934Z,86.00
2018-03-03T04:31:51.960Z,91.50
2018-03-03T04:32:51.982Z,87.70
2018-03-03T04:33:52.012Z,87.40
2018-03-03T04:34:52.032Z,91.90
2018-03-03T04:35:52.061Z,89.90
2018-03-03T04:36:52.080Z,106.30
2018-03-03T04:37:52.104Z,92.80
2018-03-03T04:38:52.136Z,103.70
2018-03-03T04:39:52.155Z,101.50
2018-03-03T04:40:52.179Z,100.60
2018-03-03T04:41:52.202Z,103.30
2018-03-03T04:42:52.226Z,111.80
2018-03-03T04:43:52.258Z,105.20
2018-03-03T04:44:52.276Z,111.50
2018-03-03T04:45:52.300Z,103.30
2018-03-03T04:46:52.326Z,98.90
2018-03-03T04:47:52.349Z,98.80
2018-03-03T04:48:52.372Z,109.70
2018-03-03T04:49:52.401Z,103.20
2018-03-03T04:50:52.422Z,97.80
2018-03-03T04:51:52.447Z,104.60
2018-03-03T04:52:52.473Z,110.80
2018-03-03T04:53:52.494Z,101.10
2018-03-03T04:54:52.520Z,96.80
2018-03-03T04:55:52.543Z,98.90
2018-03-03T04:56:52.568Z,104.00
2018-03-03T04:57:52.592Z,107.20
2018-03-03T04:58:52.617Z,96.00
2018-03-03T04:59:52.642Z,105.00
2018-03-03T05:00:52.665Z,98.60
2018-03-03T05:01:52.690Z,95.60
2018-03-03T05:02:52.714Z,101.30
2018-03-03T05:03:52.738Z,104.10
2018-03-03T05:04:52.763Z,103.40
2018-03-03T05:05:52.787Z,104.00
2018-03-03T05:06:52.810Z,109.90
2018-03-03T05:07:52.837Z,103.00
2018-03-03T05:08:52.860Z,106.30
2018-03-03T05:09:52.886Z,102.20
2018-03-03T05:10:52.910Z,100.90
2018-03-03T05:11:52.934Z,103.10
2018-03-03T05:12:52.956Z,89.80
2018-03-03T05:13:52.981Z,97.80
2018-03-03T05:14:53.005Z,98.00
2018-03-03T05:15:53.031Z,103.10
2018-03-03T05:16:53.055Z,107.60
2018-03-03T05:17:53.079Z,103.90
2018-03-03T05:18:53.104Z,95.20
2018-03-03T05:19:53.128Z,96.90
2018-03-03T05:20:53.152Z,93.50
2018-03-03T05:21:53.176Z,86.60
2018-03-03T05:22:53.199Z,90.40
2018-03-03T05:23:53.227Z,95.00
2018-03-03T05:24:53.251Z,92.80
2018-03-03T05:25:53.274Z,90.20
2018-03-03T05:26:53.300Z,85.30
2018-03-03T05:27:53.323Z,82.10
2018-03-03T05:28:53.347Z,85.80
2018-03-03T05:29:53.373Z,92.70
2018-03-03T05:30:53.397Z,83.60
2018-03-03T05:31:53.421Z,94.00
2018-03-03T05:32:53.443Z,92.40
2018-03-03T05:33:53.469Z,98.60
2018-03-03T05:34:53.493Z,89.40
2018-03-03T05:35:53.519Z,93.40
2018-03-03T05:36:53.542Z,81.80
2018-03-03T05:37:53.567Z,84.70
2018-03-03T05:38:53.590Z,85.00
2018-03-03T05:39:53.615Z,82.10
2018-03-03T05:40:53.639Z,79.70
2018-03-03T05:41:53.664Z,77.30
2018-03-03T05:42:53.689Z,75.10
2018-03-03T05:43:53.717Z,75.10
2018-03-03T05:44:53.737Z,74.60
2018-03-03T05:45:53.761Z,72.90
2018-03-03T05:46:53.785Z,72.50
2018-03-03T05:47:53.812Z,75.60
2018-03-03T05:48:53.835Z,77.70
2018-03-03T05:49:53.860Z,74.70
2018-03-03T05:50:53.885Z,78.50
2018-03-03T05:51:53.910Z,78.80
2018-03-03T05:52:53.932Z,77.40
2018-03-03T05:53:53.956Z,74.70
2018-03-03T05:54:53.980Z,75.10
2018-03-03T05:55:54.006Z,77.40
2018-03-03T05:56:54.030Z,75.90
2018-03-03T05:57:54.055Z,75.60
2018-03-03T05:58:54.078Z,75.60
2018-03-03T05:59:54.102Z,74.00
2018-03-03T06:00:54.128Z,71.70
2018-03-03T06:01:54.155Z,71.40
2018-03-03T06:02:54.176Z,71.60
2018-03-03T06:03:54.201Z,69.50
2018-03-03T06:04:54.225Z,71.00
2018-03-03T06:05:54.252Z,69.40
2018-03-03T06:06:54.274Z,72.40
2018-03-03T06:07:54.297Z,72.20
2018-03-03T06:08:54.322Z,73.40
2018-03-03T06:09:54.347Z,69.70
2018-03-03T06:10:54.372Z,74.20
2018-03-03T06:11:54.396Z,72.40
2018-03-03T06:12:54.419Z,70.50
2018-03-03T06:13:54.445Z,74.40
2018-03-03T06:14:54.470Z,68.40
2018-03-03T06:15:54.495Z,70.20
2018-03-03T06:16:54.518Z,73.80
2018-03-03T06:17:54.543Z,73.30
2018-03-03T06:18:54.567Z,69.60
2018-03-03T06:19:54.592Z,69.00
2018-03-03T06:20:54.617Z,70.60
2018-03-03T06:21:54.640Z,70.10
2018-03-03T06:22:54.666Z,69.80
2018-03-03T06:23:54.690Z,70.60
2018-03-03T06:24:54.715Z,68.50
2018-03-03T06:25:54.737Z,70.90
2018-03-03T06:26:54.764Z,72.40
2018-03-03T06:27:54.787Z,69.80
2018-03-03T06:28:54.817Z,66.80
2018-03-03T06:29:54.837Z,68.60
2018-03-03T06:30:54.863Z,72.50
2018-03-03T06:31:54.885Z,66.60
2018-03-03T06:32:54.909Z,66.40
2018-03-03T06:33:54.935Z,66.00
2018-03-03T06:34:54.960Z,68.00
2018-03-03T06:35:54.985Z,69.00
2018-03-03T06:36:55.009Z,69.50
2018-03-03T06:37:55.033Z,69.90
2018-03-03T06:38:55.059Z,73.00
2018-03-03T06:39:55.082Z,72.40
2018-03-03T06:40:55.107Z,71.30
2018-03-03T06:41:55.132Z,78.50
2018-03-03T06:42:55.155Z,83.10
2018-03-03T06:43:55.181Z,81.20
2018-03-03T06:44:55.204Z,86.00
2018-03-03T06:45:55.231Z,79.00
2018-03-03T06:46:55.260Z,76.80
2018-03-03T06:47:55.280Z,64.80
2018-03-03T06:48:55.310Z,63.80
2018-03-03T06:49:55.329Z,61.10
2018-03-03T06:50:55.354Z,58.10
2018-03-03T06:51:55.385Z,62.10
2018-03-03T06:52:55.403Z,61.20
2018-03-03T06:53:55.426Z,59.20
2018-03-03T06:54:55.452Z,60.90
2018-03-03T06:55:55.477Z,66.10
2018-03-03T06:56:55.501Z,70.40
2018-03-03T06:57:55.526Z,69.10
2018-03-03T06:58:55.551Z,65.90
2018-03-03T06:59:55.576Z,61.90
2018-03-03T07:00:55.599Z,61.80
2018-03-03T07:01:55.624Z,63.10
2018-03-03T07:02:55.650Z,63.80
2018-03-03T07:03:55.674Z,54.10
2018-03-03T07:04:55.700Z,57.10
2018-03-03T07:05:55.723Z,57.60
2018-03-03T07:06:55.748Z,60.10
2018-03-03T07:07:55.774Z,56.40
2018-03-03T07:08:55.798Z,62.70
2018-03-03T07:09:55.822Z,60.50
2018-03-03T07:10:55.847Z,60.10
2018-03-03T07:11:55.874Z,58.80
2018-03-03T07:12:55.896Z,58.60
2018-03-03T07:13:55.921Z,60.90
2018-03-03T07:14:55.947Z,58.60
2018-03-03T07:15:55.975Z,57.20
2018-03-03T07:16:55.994Z,61.00
2018-03-03T07:17:56.020Z,65.60
2018-03-03T07:18:56.045Z,68.70
2018-03-03T07:19:56.070Z,66.90
2018-03-03T07:20:56.095Z,70.20
2018-03-03T07:21:56.119Z,70.80
2018-03-03T07:22:56.144Z,75.00
2018-03-03T07:23:56.169Z,73.20
2018-03-03T07:24:56.193Z,68.60
2018-03-03T07:25:56.217Z,66.90
2018-03-03T07:26:56.248Z,71.30
2018-03-03T07:27:56.269Z,71.90
2018-03-03T07:28:56.292Z,76.90
2018-03-03T07:29:56.318Z,74.20
2018-03-03T07:30:56.343Z,69.20
2018-03-03T07:31:56.367Z,71.40
2018-03-03T07:32:56.391Z,71.50
2018-03-03T07:33:56.417Z,73.90
2018-03-03T07:34:56.442Z,72.70
2018-03-03T07:35:56.471Z,73.20
2018-03-03T07:36:56.491Z,72.30
2018-03-03T07:37:56.515Z,76.30
2018-03-03T07:38:56.540Z,72.20
2018-03-03T07:39:56.565Z,69.90
2018-03-03T07:40:56.591Z,67.50
2018-03-03T07:41:56.614Z,72.20
2018-03-03T07:42:56.641Z,75.10
2018-03-03T07:44:29.871Z,72.70
2018-03-03T07:44:56.688Z,69.80
2018-03-03T07:45:56.711Z,69.10
2018-03-03T07:46:56.737Z,66.10
2018-03-03T07:47:56.762Z,65.90
2018-03-03T07:48:56.790Z,63.40
2018-03-03T07:49:56.812Z,59.60
2018-03-03T07:50:56.836Z,59.90
2018-03-03T07:51:56.861Z,60.60
2018-03-03T07:52:56.884Z,60.00
2018-03-03T07:53:56.910Z,61.60
2018-03-03T07:54:56.936Z,58.80
2018-03-03T07:55:56.960Z,63.10
2018-03-03T07:56:56.984Z,64.60
2018-03-03T07:57:57.009Z,57.00
2018-03-03T07:58:57.038Z,58.30
2018-03-03T07:59:57.059Z,56.90
2018-03-03T08:00:57.083Z,56.20
2018-03-03T08:01:57.108Z,54.50
2018-03-03T08:02:57.133Z,57.20
2018-03-03T08:03:57.158Z,56.90
2018-03-03T08:04:57.183Z,55.30
2018-03-03T08:05:57.208Z,53.90
2018-03-03T08:06:57.234Z,53.90
2018-03-03T08:07:57.259Z,55.20
2018-03-03T08:08:57.283Z,57.40
2018-03-03T08:09:57.308Z,55.70
2018-03-03T08:10:57.334Z,57.90
2018-03-03T08:11:57.359Z,54.40
2018-03-03T08:12:57.384Z,55.30
2018-03-03T08:13:57.410Z,55.70
2018-03-03T08:14:57.434Z,56.60
2018-03-03T08:15:57.460Z,58.40
2018-03-03T08:16:57.483Z,56.60
2018-03-03T08:17:57.509Z,59.60
2018-03-03T08:18:57.536Z,57.30
2018-03-03T08:19:57.558Z,58.70
2018-03-03T08:20:57.587Z,56.70
2018-03-03T08:21:57.609Z,57.60
2018-03-03T08:22:57.633Z,53.60
2018-03-03T08:23:57.659Z,59.50
2018-03-03T08:24:57.683Z,56.40
2018-03-03T08:25:57.710Z,56.50
2018-03-03T08:26:57.733Z,57.90
2018-03-03T08:27:57.759Z,61.20
2018-03-03T08:28:57.784Z,65.30
2018-03-03T08:29:57.809Z,61.80
2018-03-03T08:30:57.835Z,56.00
2018-03-03T08:31:57.860Z,56.00
2018-03-03T08:32:57.884Z,61.20
2018-03-03T08:33:57.911Z,59.80
2018-03-03T08:34:57.936Z,59.60
2018-03-03T08:35:57.962Z,55.40
2018-03-03T08:36:57.986Z,56.10
2018-03-03T08:37:58.012Z,54.00
2018-03-03T08:38:58.037Z,55.90
2018-03-03T08:39:58.063Z,50.70
2018-03-03T08:40:58.089Z,53.20
2018-03-03T08:41:58.113Z,54.40
2018-03-03T08:42:58.139Z,54.50
2018-03-03T08:43:58.222Z,52.30
2018-03-03T08:44:58.189Z,53.10
2018-03-03T08:45:58.215Z,54.10
2018-03-03T08:46:58.242Z,52.80
2018-03-03T08:47:58.269Z,51.20
2018-03-03T08:48:58.292Z,53.10
2018-03-03T08:49:58.319Z,53.30
2018-03-03T08:50:58.345Z,53.10
2018-03-03T08:51:58.372Z,52.80
2018-03-03T08:52:58.416Z,53.60
2018-03-03T08:53:58.426Z,51.90
2018-03-03T08:54:58.450Z,51.80
2018-03-03T08:55:58.476Z,51.50
2018-03-03T08:56:58.502Z,51.40
2018-03-03T08:57:58.531Z,48.70
2018-03-03T08:58:58.555Z,49.10
2018-03-03T08:59:58.583Z,47.20
2018-03-03T09:00:58.609Z,48.80
2018-03-03T09:01:58.636Z,45.10
2018-03-03T09:02:58.671Z,46.40
2018-03-03T09:03:58.689Z,47.90
2018-03-03T09:04:58.720Z,46.40
2018-03-03T09:05:58.743Z,42.80
2018-03-03T09:06:58.770Z,44.50
2018-03-03T09:07:58.798Z,45.10
2018-03-03T09:08:58.823Z,43.30
2018-03-03T09:09:58.851Z,46.30
2018-03-03T09:10:58.879Z,45.10
2018-03-03T09:11:58.906Z,45.30
2018-03-03T09:12:58.932Z,45.80
2018-03-03T09:13:58.964Z,43.60
2018-03-03T09:14:58.986Z,46.00
2018-03-03T09:15:59.014Z,44.80
2018-03-03T09:16:59.040Z,46.10
2018-03-03T09:17:59.067Z,45.70
2018-03-03T09:18:59.095Z,45.80
2018-03-03T09:19:59.121Z,44.70
2018-03-03T09:20:59.148Z,42.20
2018-03-03T09:21:59.177Z,48.00
2018-03-03T09:22:59.203Z,47.70
2018-03-03T09:23:59.230Z,45.00
2018-03-03T09:24:59.255Z,48.70
2018-03-03T09:25:59.283Z,48.60
2018-03-03T09:26:59.315Z,47.00
2018-03-03T09:27:59.338Z,47.40
2018-03-03T09:28:59.368Z,48.50
2018-03-03T09:29:59.393Z,46.90
2018-03-03T09:30:59.421Z,45.70
2018-03-03T09:31:59.447Z,48.40
2018-03-03T09:32:59.473Z,51.80
2018-03-03T09:33:59.502Z,53.70
2018-03-03T09:34:59.529Z,54.80
2018-03-03T09:35:59.556Z,54.80
2018-03-03T09:36:59.581Z,57.10
2018-03-03T09:37:59.609Z,63.30
2018-03-03T09:38:59.639Z,65.10
2018-03-03T09:39:59.664Z,62.50
2018-03-03T09:40:59.691Z,58.90
2018-03-03T09:41:59.717Z,56.80
2018-03-03T09:42:59.744Z,59.70
2018-03-03T09:43:59.772Z,62.30
2018-03-03T09:44:59.797Z,66.10
2018-03-03T09:45:59.825Z,67.80
2018-03-03T09:46:59.854Z,68.30
2018-03-03T09:47:59.879Z,71.60
2018-03-03T09:48:59.905Z,73.00
2018-03-03T09:49:59.931Z,75.20
2018-03-03T09:50:59.959Z,73.80
2018-03-03T09:51:59.989Z,75.00
2018-03-03T09:53:00.012Z,74.70
2018-03-03T09:54:00.039Z,77.60
2018-03-03T09:55:00.066Z,75.80
2018-03-03T09:56:00.093Z,78.90
2018-03-03T09:57:00.119Z,77.40
2018-03-03T09:58:00.146Z,81.80
2018-03-03T09:59:00.171Z,80.60
2018-03-03T10:00:00.199Z,81.30
2018-03-03T10:01:00.224Z,79.00
2018-03-03T10:02:06.293Z,81.70
2018-03-03T10:03:00.277Z,78.10
2018-03-03T10:04:00.304Z,78.70
2018-03-03T10:05:00.330Z,79.70
2018-03-03T10:06:00.356Z,81.00
2018-03-03T10:07:00.382Z,75.80
2018-03-03T10:08:00.408Z,79.00
2018-03-03T10:09:00.436Z,78.10
2018-03-03T10:10:00.466Z,82.30
2018-03-03T10:11:00.489Z,81.50
2018-03-03T10:12:00.515Z,80.40
2018-03-03T10:13:00.541Z,83.90
2018-03-03T10:14:00.569Z,83.30
2018-03-03T10:15:00.596Z,84.00
2018-03-03T10:16:00.623Z,86.10
2018-03-03T10:17:00.649Z,85.90
2018-03-03T10:18:00.676Z,86.10
2018-03-03T10:19:00.702Z,91.10
2018-03-03T10:20:00.729Z,90.30
2018-03-03T10:21:00.755Z,89.60
2018-03-03T10:22:00.784Z,89.30
2018-03-03T10:23:00.811Z,91.50
2018-03-03T10:24:00.837Z,94.10
2018-03-03T10:25:00.868Z,93.10
2018-03-03T10:26:00.895Z,94.90
2018-03-03T10:27:00.919Z,95.20
2018-03-03T10:28:00.948Z,96.20
2018-03-03T10:29:00.972Z,95.70
2018-03-03T10:30:01.006Z,96.20
2018-03-03T10:31:01.029Z,95.60
2018-03-03T10:32:01.056Z,95.60
2018-03-03T10:33:01.142Z,94.80
2018-03-03T10:34:01.111Z,95.80
2018-03-03T10:35:01.138Z,93.30
2018-03-03T10:36:01.167Z,94.80
2018-03-03T10:37:01.194Z,94.50
2018-03-03T10:38:01.221Z,96.20
2018-03-03T10:39:01.286Z,100.30
2018-03-03T10:40:01.276Z,99.10
2018-03-03T10:41:01.304Z,95.30
2018-03-03T10:42:01.331Z,96.20
2018-03-03T10:43:01.360Z,100.80
2018-03-03T10:44:01.388Z,97.40
2018-03-03T10:45:01.415Z,104.10
2018-03-03T10:46:01.442Z,100.30
2018-03-03T10:47:01.470Z,93.90
2018-03-03T10:48:01.495Z,98.50
2018-03-03T10:49:01.523Z,98.10
2018-03-03T10:50:01.550Z,103.40
2018-03-03T10:51:01.577Z,101.00
2018-03-03T10:52:01.605Z,103.90
2018-03-03T10:53:01.631Z,104.20
2018-03-03T10:54:01.662Z,106.70
2018-03-03T10:55:01.687Z,106.00
2018-03-03T10:56:01.713Z,110.80
2018-03-03T10:57:01.743Z,111.70
2018-03-03T10:58:01.766Z,114.40
2018-03-03T10:59:01.793Z,119.20
2018-03-03T11:00:01.821Z,119.40
2018-03-03T11:01:01.847Z,116.30
2018-03-03T11:02:01.875Z,113.80
2018-03-03T11:03:01.902Z,115.70
2018-03-03T11:04:01.948Z,113.20
2018-03-03T11:05:01.955Z,117.10
2018-03-03T11:06:01.981Z,117.60
2018-03-03T11:07:02.009Z,113.70
2018-03-03T11:08:02.035Z,116.00
2018-03-03T11:09:02.061Z,117.00
2018-03-03T11:10:02.089Z,115.30
2018-03-03T11:11:02.117Z,113.90
2018-03-03T11:12:02.142Z,115.50
2018-03-03T11:13:02.168Z,114.30
2018-03-03T11:14:02.195Z,112.80
2018-03-03T11:15:02.224Z,107.80
2018-03-03T11:16:02.252Z,110.30
2018-03-03T11:17:02.331Z,111.00
2018-03-03T11:18:02.303Z,109.40
2018-03-03T11:19:02.330Z,106.60
2018-03-03T11:20:02.358Z,109.10
2018-03-03T11:21:02.383Z,106.60
2018-03-03T11:22:02.410Z,104.40
2018-03-03T11:23:02.438Z,107.10
2018-03-03T11:24:02.466Z,105.00
2018-03-03T11:25:02.492Z,107.90
2018-03-03T11:26:02.517Z,104.00
2018-03-03T11:27:02.545Z,109.60
2018-03-03T11:28:02.573Z,107.90
2018-03-03T11:29:02.599Z,106.00
2018-03-03T11:30:02.627Z,107.40
2018-03-03T11:31:02.652Z,106.20
2018-03-03T11:32:02.681Z,107.30
2018-03-03T11:33:02.706Z,106.50
2018-03-03T11:34:02.736Z,108.60
2018-03-03T11:35:02.761Z,105.90
2018-03-03T11:36:02.787Z,105.20
2018-03-03T11:37:02.814Z,106.90
2018-03-03T11:38:02.840Z,103.90
2018-03-03T11:39:02.867Z,104.90
2018-03-03T11:40:02.893Z,104.10
2018-03-03T11:41:02.919Z,104.00
2018-03-03T11:42:02.944Z,107.20
2018-03-03T11:43:02.972Z,108.90
2018-03-03T11:44:02.999Z,106.10
2018-03-03T11:45:03.024Z,105.60
2018-03-03T11:46:03.051Z,107.00
2018-03-03T11:47:03.077Z,109.30
2018-03-03T11:48:03.104Z,103.10
2018-03-03T11:49:03.129Z,111.80
2018-03-03T11:50:03.155Z,111.80
2018-03-03T11:51:03.181Z,111.60
2018-03-03T11:52:03.208Z,117.60
2018-03-03T11:53:03.293Z,115.50
2018-03-03T11:54:03.259Z,117.80
2018-03-03T11:55:03.285Z,119.40
2018-03-03T11:56:03.334Z,112.80
2018-03-03T11:57:03.356Z,115.90
2018-03-03T11:58:03.386Z,117.20
2018-03-03T11:59:03.406Z,116.80
2018-03-03T12:00:03.430Z,121.90
2018-03-03T12:01:03.440Z,115.00
2018-03-03T12:02:03.465Z,114.10
2018-03-03T12:03:03.492Z,107.80
2018-03-03T12:04:03.518Z,112.60
2018-03-03T12:05:03.550Z,113.10
2018-03-03T12:06:03.569Z,108.60
2018-03-03T12:07:03.598Z,110.40
2018-03-03T12:08:03.621Z,116.20
2018-03-03T12:09:03.648Z,111.80
2018-03-03T12:10:03.676Z,114.60
2018-03-03T12:11:03.700Z,118.70
2018-03-03T12:12:03.726Z,117.70
2018-03-03T12:13:03.749Z,112.30
2018-03-03T12:14:03.775Z,112.70
2018-03-03T12:15:03.801Z,111.30
2018-03-03T12:16:03.827Z,111.70
2018-03-03T12:17:03.854Z,107.90
2018-03-03T12:18:03.878Z,114.30
2018-03-03T12:19:03.906Z,111.00
2018-03-03T12:20:03.933Z,111.70
2018-03-03T12:21:03.957Z,108.70
2018-03-03T12:22:03.987Z,109.00
2018-03-03T12:23:04.008Z,108.50
2018-03-03T12:24:04.035Z,112.10
2018-03-03T12:25:04.061Z,112.80
2018-03-03T12:26:04.114Z,114.50
2018-03-03T12:27:04.139Z,115.80
2018-03-03T12:28:04.140Z,119.20
2018-03-03T12:29:04.187Z,120.40
2018-03-03T12:30:04.207Z,119.80
2018-03-03T12:31:04.253Z,123.50
2018-03-03T12:32:04.245Z,121.60
2018-03-03T12:33:04.268Z,120.10
2018-03-03T12:34:04.296Z,118.90
2018-03-03T12:35:04.324Z,118.30
2018-03-03T12:36:04.347Z,122.30
2018-03-03T12:37:04.373Z,117.40
2018-03-03T12:38:04.398Z,116.80
2018-03-03T12:39:04.425Z,115.80
2018-03-03T12:40:04.455Z,119.50
2018-03-03T12:41:04.476Z,122.50
2018-03-03T12:42:04.502Z,120.10
2018-03-03T12:43:04.528Z,113.30